createdAt,value
2019-01-08T00:00:36.053Z,8.00
2019-01-08T00:03:05.683Z,8.00
2019-01-08T00:05:35.431Z,8.00
2019-01-08T00:08:05.086Z,7.90
2019-01-08T00:10:34.881Z,7.90
2019-01-08T00:13:04.800Z,7.80
2019-01-08T00:15:37.554Z,7.70
2019-01-08T00:18:10.347Z,7.60
2019-01-08T00:20:40.451Z,7.50
2019-01-08T00:23:11.622Z,7.50
2019-01-08T00:26:07.618Z,7.50
2019-01-08T00:28:43.422Z,7.50
2019-01-08T00:31:15.882Z,7.50
2019-01-08T00:33:45.511Z,7.50
2019-01-08T00:36:15.015Z,7.40
2019-01-08T00:38:44.600Z,7.40
2019-01-08T00:41:14.254Z,7.40
2019-01-08T00:43:44.684Z,7.40
2019-01-08T00:46:14.282Z,7.30
2019-01-08T00:48:43.740Z,7.20
2019-01-08T00:51:13.256Z,7.20
2019-01-08T00:53:46.011Z,7.20
2019-01-08T00:56:15.472Z,7.20
2019-01-08T00:58:51.470Z,7.20
2019-01-08T01:01:18.406Z,7.10
2019-01-08T01:04:19.924Z,7.10
2019-01-08T01:06:46.707Z,7.10
2019-01-08T01:09:16.269Z,7.20
2019-01-08T01:11:45.849Z,7.20
2019-01-08T01:14:15.401Z,7.20
2019-01-08T01:16:44.965Z,7.20
2019-01-08T01:19:14.431Z,7.30
2019-01-08T01:21:44.065Z,7.30
2019-01-08T01:24:13.680Z,7.20
2019-01-08T01:26:43.415Z,7.20
2019-01-08T01:29:13.639Z,7.20
2019-01-08T01:31:43.232Z,7.20
2019-01-08T01:34:12.699Z,7.20
2019-01-08T01:36:42.361Z,7.20
2019-01-08T01:39:12.030Z,7.30
2019-01-08T01:41:41.595Z,7.30
2019-01-08T01:44:11.290Z,7.30
2019-01-08T01:46:40.838Z,7.30
2019-01-08T01:49:10.802Z,7.30
2019-01-08T01:51:40.494Z,7.40
2019-01-08T01:54:10.112Z,7.30
2019-01-08T01:56:39.772Z,7.30
2019-01-08T01:59:10.766Z,7.30
2019-01-08T02:01:40.366Z,7.30
2019-01-08T02:04:09.664Z,7.30
2019-01-08T02:06:39.283Z,7.30
2019-01-08T02:09:08.851Z,7.30
2019-01-08T02:11:38.362Z,7.30
2019-01-08T02:14:07.928Z,7.30
2019-01-08T02:16:37.647Z,7.30
2019-01-08T02:19:07.443Z,7.40
2019-01-08T02:21:37.057Z,7.40
2019-01-08T02:24:06.616Z,7.40
2019-01-08T02:26:36.356Z,7.40
2019-01-08T02:29:05.957Z,7.40
2019-01-08T02:31:35.857Z,7.30
2019-01-08T02:34:05.537Z,7.30
2019-01-08T02:36:35.397Z,7.20
2019-01-08T02:39:06.372Z,7.20
2019-01-08T02:41:36.209Z,7.20
2019-01-08T02:44:05.906Z,7.20
2019-01-08T02:46:35.696Z,7.20
2019-01-08T02:49:05.518Z,7.20
2019-01-08T02:51:35.079Z,7.10
2019-01-08T02:54:04.569Z,7.10
2019-01-08T02:56:34.259Z,7.00
2019-01-08T02:59:03.944Z,7.00
2019-01-08T03:01:33.875Z,6.90
2019-01-08T03:04:03.532Z,6.90
2019-01-08T03:06:33.191Z,6.80
2019-01-08T03:09:02.868Z,6.80
2019-01-08T03:11:32.461Z,6.80
2019-01-08T03:14:01.983Z,6.80
2019-01-08T03:16:31.757Z,6.90
2019-01-08T03:19:01.717Z,6.80
2019-01-08T03:21:31.727Z,6.70
2019-01-08T03:24:01.335Z,6.70
2019-01-08T03:26:31.369Z,6.70
2019-01-08T03:29:01.025Z,6.70
2019-01-08T03:31:30.985Z,6.80
2019-01-08T03:34:00.675Z,6.80
2019-01-08T03:36:30.417Z,6.90
2019-01-08T03:39:00.022Z,6.90
2019-01-08T03:41:29.938Z,6.90
2019-01-08T03:43:59.496Z,7.00
2019-01-08T03:46:29.235Z,7.00
2019-01-08T03:48:58.924Z,7.00
2019-01-08T03:51:28.430Z,7.00
2019-01-08T03:53:57.989Z,6.90
2019-01-08T03:56:27.398Z,6.80
2019-01-08T03:58:57.201Z,6.80
2019-01-08T04:01:26.820Z,6.70
2019-01-08T04:03:56.448Z,6.60
2019-01-08T04:06:26.201Z,6.60
2019-01-08T04:08:56.114Z,6.50
2019-01-08T04:11:25.980Z,6.50
2019-01-08T04:13:55.632Z,6.50
2019-01-08T04:16:25.343Z,6.40
2019-01-08T04:18:54.894Z,6.40
2019-01-08T04:21:24.620Z,6.30
2019-01-08T04:23:54.197Z,6.20
2019-01-08T04:26:24.096Z,6.00
2019-01-08T04:28:53.566Z,5.80
2019-01-08T04:31:23.227Z,5.70
2019-01-08T04:33:52.846Z,5.60
2019-01-08T04:36:22.456Z,5.60
2019-01-08T04:38:52.064Z,5.60
2019-01-08T04:41:21.822Z,5.70
2019-01-08T04:43:51.525Z,5.70
2019-01-08T04:46:21.179Z,5.70
2019-01-08T04:48:52.086Z,5.70
2019-01-08T04:51:21.755Z,5.80
2019-01-08T04:53:51.715Z,5.80
2019-01-08T04:56:21.274Z,5.90
2019-01-08T04:58:51.305Z,5.90
2019-01-08T05:01:21.633Z,5.90
2019-01-08T05:03:51.223Z,5.90
2019-01-08T05:06:21.507Z,6.00
2019-01-08T05:08:51.090Z,6.00
2019-01-08T05:11:21.056Z,6.00
2019-01-08T05:13:50.868Z,6.00
2019-01-08T05:16:20.610Z,6.00
2019-01-08T05:18:50.474Z,6.00
2019-01-08T05:21:36.982Z,6.10
2019-01-08T05:24:06.625Z,6.10
2019-01-08T05:26:36.777Z,6.10
2019-01-08T05:29:06.513Z,6.10
2019-01-08T05:31:37.085Z,6.10
2019-01-08T05:34:06.722Z,6.10
2019-01-08T05:36:37.336Z,6.10
2019-01-08T05:39:07.596Z,6.20
2019-01-08T05:41:42.328Z,6.10
2019-01-08T05:44:12.204Z,6.10
2019-01-08T05:46:41.971Z,6.10
2019-01-08T05:49:14.728Z,6.10
2019-01-08T05:51:44.680Z,6.10
2019-01-08T05:54:14.262Z,6.10
2019-01-08T05:56:44.186Z,6.10
2019-01-08T05:59:13.954Z,6.10
2019-01-08T06:01:44.250Z,6.10
2019-01-08T06:04:14.214Z,6.20
2019-01-08T06:06:44.100Z,6.20
2019-01-08T06:09:17.246Z,6.20
2019-01-08T06:11:47.189Z,6.20
2019-01-08T06:14:19.994Z,6.30
2019-01-08T06:16:49.942Z,6.30
2019-01-08T06:19:20.143Z,6.30
2019-01-08T06:21:49.952Z,6.20
2019-01-08T06:24:19.581Z,6.20
2019-01-08T06:26:49.475Z,6.20
2019-01-08T06:29:19.709Z,6.20
2019-01-08T06:31:49.653Z,6.20
2019-01-08T06:34:21.789Z,6.20
2019-01-08T06:36:51.737Z,6.20
2019-01-08T06:39:23.621Z,6.20
2019-01-08T06:41:53.263Z,6.20
2019-01-08T06:44:22.762Z,6.20
2019-01-08T06:46:52.707Z,6.20
2019-01-08T06:49:22.431Z,6.20
2019-01-08T06:51:52.242Z,6.20
2019-01-08T06:54:22.125Z,6.10
2019-01-08T06:56:52.370Z,6.10
2019-01-08T06:59:24.588Z,6.10
2019-01-08T07:01:54.800Z,6.10
2019-01-08T07:04:24.826Z,6.20
2019-01-08T07:06:54.696Z,6.20
2019-01-08T07:09:24.718Z,6.20
2019-01-08T07:11:54.570Z,6.20
2019-01-08T07:14:24.386Z,6.30
2019-01-08T07:16:54.123Z,6.30
2019-01-08T07:19:23.846Z,6.30
2019-01-08T07:21:53.681Z,6.40
2019-01-08T07:24:23.030Z,6.40
2019-01-08T07:26:53.422Z,6.50
2019-01-08T07:29:23.286Z,6.50
2019-01-08T07:31:52.793Z,6.50
2019-01-08T07:34:24.407Z,6.50
2019-01-08T07:36:53.937Z,6.50
2019-01-08T07:39:23.738Z,6.50
2019-01-08T07:41:57.005Z,6.50
2019-01-08T07:44:28.536Z,6.40
2019-01-08T07:46:58.090Z,6.40
2019-01-08T07:49:31.018Z,6.40
2019-01-08T07:52:00.894Z,6.30
2019-01-08T07:54:31.480Z,6.30
2019-01-08T07:57:02.931Z,6.30
2019-01-08T07:59:32.848Z,6.30
2019-01-08T08:02:02.696Z,6.40
2019-01-08T08:04:32.795Z,6.40
2019-01-08T08:07:02.117Z,6.40
2019-01-08T08:09:32.099Z,6.40
2019-01-08T08:12:01.556Z,6.50
2019-01-08T08:14:32.456Z,6.50
2019-01-08T08:17:02.042Z,6.50
2019-01-08T08:19:31.693Z,6.50
2019-01-08T08:22:01.801Z,6.60
2019-01-08T08:24:31.984Z,6.60
2019-01-08T08:27:02.395Z,6.60
2019-01-08T08:29:35.164Z,6.60
2019-01-08T08:32:05.491Z,6.60
2019-01-08T08:34:35.412Z,6.60
2019-01-08T08:37:05.931Z,6.70
2019-01-08T08:39:36.164Z,6.70
2019-01-08T08:42:05.931Z,6.80
2019-01-08T08:44:35.782Z,6.80
2019-01-08T08:47:05.512Z,6.90
2019-01-08T08:49:35.449Z,6.90
2019-01-08T08:52:05.302Z,6.90
2019-01-08T08:54:34.984Z,6.90
2019-01-08T08:57:05.420Z,6.90
2019-01-08T08:59:35.083Z,6.90
2019-01-08T09:02:04.636Z,6.80
2019-01-08T09:04:34.328Z,6.80
2019-01-08T09:07:04.112Z,6.70
2019-01-08T09:09:33.870Z,6.60
2019-01-08T09:12:03.408Z,6.50
2019-01-08T09:14:34.950Z,6.40
2019-01-08T09:17:04.524Z,6.30
2019-01-08T09:19:34.145Z,6.20
2019-01-08T09:22:03.877Z,6.20
2019-01-08T09:24:33.782Z,6.20
2019-01-08T09:27:04.029Z,6.20
2019-01-08T09:29:34.538Z,6.20
2019-01-08T09:32:04.091Z,6.10
2019-01-08T09:34:33.828Z,6.10
2019-01-08T09:37:03.559Z,6.10
2019-01-08T09:39:34.319Z,6.10
2019-01-08T09:42:04.165Z,6.10
2019-01-08T09:44:34.059Z,6.10
2019-01-08T09:47:03.782Z,6.10
2019-01-08T09:49:32.960Z,6.10
2019-01-08T09:52:03.284Z,6.20
2019-01-08T09:54:32.685Z,6.20
2019-01-08T09:57:04.100Z,6.20
2019-01-08T09:59:35.544Z,6.30
2019-01-08T10:02:05.639Z,6.30
2019-01-08T10:04:35.697Z,6.40
2019-01-08T10:07:05.810Z,6.40
2019-01-08T10:09:36.007Z,6.40
2019-01-08T10:12:06.185Z,6.50
2019-01-08T10:14:35.946Z,6.00
2019-01-08T10:17:06.331Z,6.60
2019-01-08T10:19:36.005Z,6.70
2019-01-08T10:22:05.791Z,6.70
2019-01-08T10:24:35.498Z,6.70
2019-01-08T10:27:05.127Z,6.70
2019-01-08T10:29:37.555Z,6.70
2019-01-08T10:32:07.151Z,6.60
2019-01-08T10:34:36.472Z,6.50
2019-01-08T10:37:06.151Z,6.50
2019-01-08T10:39:35.877Z,6.30
2019-01-08T10:42:06.235Z,6.00
2019-01-08T10:44:45.764Z,5.60
2019-01-08T11:02:34.311Z,5.40
2019-01-08T11:06:14.433Z,5.70
2019-01-08T11:23:16.433Z,6.70
2019-01-08T11:26:22.767Z,7.10
2019-01-08T11:29:26.890Z,7.30
2019-01-08T11:31:57.414Z,7.40
2019-01-08T11:34:31.975Z,7.30
2019-01-08T11:37:02.069Z,7.20
2019-01-08T11:39:35.729Z,7.20
2019-01-08T11:42:05.391Z,7.10
2019-01-08T11:44:34.882Z,7.10
2019-01-08T11:47:05.021Z,7.00
2019-01-08T11:49:39.999Z,8.80
2019-01-08T11:52:24.968Z,6.60
2019-01-08T11:55:24.964Z,6.20
2019-01-08T11:58:26.104Z,5.80
2019-01-08T12:01:20.036Z,5.80
2019-01-08T12:04:17.565Z,6.00
2019-01-08T12:07:18.867Z,6.20
2019-01-08T12:10:18.229Z,6.30
2019-01-08T12:13:18.965Z,6.40
2019-01-08T12:15:54.387Z,6.40
2019-01-08T12:18:28.617Z,6.40
2019-01-08T12:24:06.805Z,6.40
2019-01-08T12:26:45.250Z,6.50
2019-01-08T12:29:18.511Z,6.50
2019-01-08T12:32:05.604Z,6.50
2019-01-08T12:34:32.112Z,6.40
2019-01-08T12:37:05.656Z,6.40
2019-01-08T12:39:40.084Z,6.30
2019-01-08T12:42:04.159Z,6.40
2019-01-08T12:44:38.193Z,6.40
2019-01-08T12:47:07.924Z,6.40
2019-01-08T12:49:38.214Z,6.60
2019-01-08T12:52:09.587Z,6.70
2019-01-08T12:54:43.419Z,6.80
2019-01-08T12:57:13.130Z,6.70
2019-01-08T12:59:42.946Z,6.70
2019-01-08T13:02:16.908Z,6.70
2019-01-08T13:04:46.792Z,6.60
2019-01-08T13:07:19.347Z,6.60
2019-01-08T13:09:52.160Z,6.50
2019-01-08T13:12:22.260Z,6.40
2019-01-08T13:14:55.147Z,6.30
2019-01-08T13:17:24.967Z,6.30
2019-01-08T13:19:54.717Z,6.30
2019-01-08T13:22:24.167Z,7.20
2019-01-08T13:24:54.346Z,6.50
2019-01-08T13:27:24.850Z,6.70
2019-01-08T13:29:54.484Z,6.80
2019-01-08T13:32:24.091Z,6.80
2019-01-08T13:34:55.671Z,6.80
2019-01-08T13:37:26.478Z,6.70
2019-01-08T13:39:55.965Z,6.70
2019-01-08T13:42:25.562Z,6.60
2019-01-08T13:44:55.423Z,6.50
2019-01-08T13:47:24.751Z,6.40
2019-01-08T13:49:54.149Z,6.30
2019-01-08T13:52:23.820Z,6.20
2019-01-08T13:54:53.395Z,6.20
2019-01-08T13:57:23.450Z,6.10
2019-01-08T13:59:53.458Z,6.20
2019-01-08T14:02:31.636Z,6.20
2019-01-08T14:04:54.401Z,6.20
2019-01-08T14:07:25.961Z,6.10
2019-01-08T14:09:55.534Z,6.10
2019-01-08T14:12:25.355Z,6.00
2019-01-08T14:14:55.085Z,5.90
2019-01-08T14:17:24.935Z,5.90
2019-01-08T14:19:54.680Z,5.60
2019-01-08T14:22:24.487Z,5.80
2019-01-08T14:24:54.209Z,5.80
2019-01-08T14:27:24.893Z,5.80
2019-01-08T14:29:54.491Z,5.80
2019-01-08T14:32:27.172Z,5.80
2019-01-08T14:34:57.015Z,5.80
2019-01-08T14:37:26.741Z,5.90
2019-01-08T14:39:56.646Z,5.90
2019-01-08T14:42:26.233Z,5.90
2019-01-08T14:44:59.029Z,5.90
2019-01-08T14:47:28.875Z,5.90
2019-01-08T14:49:58.632Z,5.90
2019-01-08T14:52:28.593Z,5.90
2019-01-08T14:55:04.184Z,6.00
2019-01-08T14:57:30.178Z,6.00
2019-01-08T14:59:58.623Z,5.90
2019-01-08T15:02:29.496Z,6.00
2019-01-08T15:05:03.326Z,6.00
2019-01-08T15:07:32.126Z,6.00
2019-01-08T15:10:03.780Z,6.00
2019-01-08T15:12:33.042Z,6.00
2019-01-08T15:15:01.549Z,6.00
2019-01-08T15:17:30.370Z,6.00
2019-01-08T15:19:58.842Z,5.90
2019-01-08T15:22:27.302Z,5.90
2019-01-08T15:24:56.447Z,5.90
2019-01-08T15:27:29.528Z,5.90
2019-01-08T15:30:06.839Z,5.90
2019-01-08T15:32:35.834Z,5.80
2019-01-08T15:35:04.663Z,5.80
2019-01-08T15:37:33.435Z,5.80
2019-01-08T15:40:02.217Z,5.80
2019-01-08T15:42:32.953Z,5.80
2019-01-08T15:45:01.559Z,5.80
2019-01-08T15:47:30.524Z,5.80
2019-01-08T15:49:59.354Z,5.80
2019-01-08T15:52:28.386Z,5.80
2019-01-08T15:54:56.906Z,5.80
2019-01-08T15:57:25.346Z,5.80
2019-01-08T15:59:53.783Z,5.80
2019-01-08T16:02:23.546Z,5.70
2019-01-08T16:04:52.239Z,5.70
2019-01-08T16:07:22.889Z,5.70
2019-01-08T16:09:51.218Z,5.70
2019-01-08T16:12:19.794Z,5.70
2019-01-08T16:14:48.418Z,5.70
2019-01-08T16:17:17.085Z,5.70
2019-01-08T16:19:45.989Z,5.70
2019-01-08T16:22:14.478Z,5.60
2019-01-08T16:24:42.994Z,5.60
2019-01-08T16:27:11.345Z,5.60
2019-01-08T16:29:39.842Z,5.60
2019-01-08T16:32:08.472Z,5.60
2019-01-08T16:34:37.179Z,5.50
2019-01-08T16:37:17.540Z,5.40
2019-01-08T16:39:47.807Z,5.30
2019-01-08T16:42:22.608Z,5.30
2019-01-08T16:44:52.082Z,5.20
2019-01-08T16:47:23.678Z,5.20
2019-01-08T16:49:53.414Z,5.20
2019-01-08T16:52:25.350Z,5.10
2019-01-08T16:54:54.969Z,5.20
2019-01-08T16:57:25.350Z,5.20
2019-01-08T16:59:55.248Z,5.20
2019-01-08T17:02:24.993Z,5.20
2019-01-08T17:04:54.707Z,5.20
2019-01-08T17:07:25.574Z,5.10
2019-01-08T17:09:54.897Z,5.10
2019-01-08T17:12:24.316Z,5.10
2019-01-08T17:14:54.840Z,5.00
2019-01-08T17:17:24.915Z,5.10
2019-01-08T17:20:03.545Z,5.10
2019-01-08T17:22:33.959Z,5.00
2019-01-08T17:25:08.924Z,5.00
2019-01-08T17:27:39.373Z,5.00
2019-01-08T17:30:15.891Z,5.00
2019-01-08T17:32:45.712Z,5.00
2019-01-08T17:35:15.058Z,5.00
2019-01-08T17:37:44.916Z,5.00
2019-01-08T17:40:14.883Z,5.00
2019-01-08T17:42:45.113Z,5.10
2019-01-08T17:45:14.794Z,5.10
2019-01-08T17:47:44.846Z,5.10
2019-01-08T17:50:14.948Z,5.10
2019-01-08T17:52:45.507Z,5.10
2019-01-08T17:55:23.957Z,5.10
2019-01-08T17:58:30.206Z,5.10
2019-01-08T18:01:00.137Z,5.10
2019-01-08T18:03:29.866Z,5.10
2019-01-08T18:05:59.176Z,5.10
2019-01-08T18:08:28.932Z,5.90
2019-01-08T18:11:02.775Z,5.10
2019-01-08T18:13:32.216Z,5.10
2019-01-08T18:16:01.805Z,5.10
2019-01-08T18:18:32.783Z,5.00
2019-01-08T18:21:09.640Z,5.00
2019-01-08T18:24:02.426Z,5.00
2019-01-08T18:26:50.903Z,5.00
2019-01-08T18:29:30.262Z,5.00
2019-01-08T18:32:15.224Z,5.00
2019-01-08T18:35:08.274Z,5.00
2019-01-08T18:38:02.772Z,5.00
2019-01-08T18:40:34.460Z,5.00
2019-01-08T18:43:03.985Z,5.00
2019-01-08T18:45:33.758Z,5.00
2019-01-08T18:48:05.103Z,5.00
2019-01-08T18:50:37.469Z,5.10
2019-01-08T18:53:09.733Z,5.10
2019-01-08T18:56:01.855Z,5.10
2019-01-08T18:58:31.720Z,5.10
2019-01-08T19:01:02.664Z,5.10
2019-01-08T19:03:37.164Z,5.20
2019-01-08T19:06:06.703Z,5.20
2019-01-08T19:09:11.816Z,5.20
2019-01-08T19:11:42.206Z,5.20
2019-01-08T19:14:27.400Z,5.20
2019-01-08T19:16:58.117Z,5.20
2019-01-08T19:19:29.106Z,5.20
2019-01-08T19:25:32.732Z,5.20
2019-01-08T19:28:37.376Z,5.10
2019-01-08T19:31:10.529Z,5.10
2019-01-08T19:34:09.070Z,5.00
2019-01-08T19:37:01.075Z,4.90
2019-01-08T19:39:40.151Z,4.80
2019-01-08T19:42:16.018Z,4.70
2019-01-08T19:45:11.585Z,4.50
2019-01-08T19:47:34.058Z,4.50
2019-01-08T19:50:08.981Z,4.40
2019-01-08T19:52:59.870Z,4.30
2019-01-08T19:55:30.042Z,4.20
2019-01-08T19:58:13.350Z,4.10
2019-01-08T20:00:53.341Z,4.10
2019-01-08T20:03:39.054Z,4.00
2019-01-08T20:06:04.793Z,4.00
2019-01-08T20:09:00.003Z,3.90
2019-01-08T20:11:32.559Z,3.90
2019-01-08T20:14:14.786Z,3.90
2019-01-08T20:17:13.983Z,3.90
2019-01-08T20:20:17.434Z,4.00
2019-01-08T20:22:57.541Z,4.00
2019-01-08T20:25:37.359Z,4.10
2019-01-08T20:28:56.724Z,4.20
2019-01-08T20:31:54.209Z,4.30
2019-01-08T20:34:42.971Z,4.30
2019-01-08T20:37:37.880Z,4.40
2019-01-08T20:40:33.219Z,4.40
2019-01-08T20:43:09.611Z,4.20
2019-01-08T20:45:45.258Z,4.10
2019-01-08T20:48:39.454Z,4.10
2019-01-08T20:51:24.580Z,4.10
2019-01-08T20:54:50.720Z,4.10
2019-01-08T20:58:08.091Z,4.00
2019-01-08T21:01:30.125Z,3.90
2019-01-08T21:06:51.363Z,4.00
2019-01-08T21:09:36.519Z,4.00
2019-01-08T21:12:01.592Z,4.00
2019-01-08T21:15:01.204Z,4.00
2019-01-08T21:17:37.867Z,4.00
2019-01-08T21:20:08.115Z,4.00
2019-01-08T21:22:37.851Z,4.10
2019-01-08T21:25:08.982Z,4.10
2019-01-08T21:27:38.511Z,4.20
2019-01-08T21:30:08.036Z,4.20
2019-01-08T21:32:37.380Z,4.20
2019-01-08T21:35:06.966Z,4.20
2019-01-08T21:37:36.772Z,4.30
2019-01-08T21:40:06.749Z,4.30
2019-01-08T21:42:54.533Z,4.40
2019-01-08T21:45:32.908Z,4.40
2019-01-08T21:48:17.278Z,4.50
2019-01-08T21:50:42.913Z,4.50
2019-01-08T21:53:21.542Z,4.50
2019-01-08T21:55:52.314Z,4.50
2019-01-08T21:58:21.890Z,4.50
2019-01-08T22:00:51.142Z,4.50
2019-01-08T22:03:21.451Z,4.50
2019-01-08T22:05:50.923Z,4.60
2019-01-08T22:08:22.628Z,4.60
2019-01-08T22:10:52.197Z,4.50
2019-01-08T22:13:21.556Z,4.50
2019-01-08T22:15:51.773Z,4.50
2019-01-08T22:18:36.448Z,4.50
2019-01-08T22:20:58.199Z,4.50
2019-01-08T22:23:34.867Z,4.50
2019-01-08T22:26:06.486Z,4.40
2019-01-08T22:28:42.989Z,4.40
2019-01-08T22:31:14.941Z,4.30
2019-01-08T22:33:45.520Z,4.30
2019-01-08T22:36:43.397Z,4.30
2019-01-08T22:39:15.687Z,4.30
2019-01-08T22:41:45.573Z,4.30
2019-01-08T22:44:38.647Z,4.40
2019-01-08T22:47:35.392Z,4.40
2019-01-08T22:50:10.113Z,4.40
2019-01-08T22:53:00.389Z,4.50
2019-01-08T22:58:45.299Z,4.50
2019-01-08T23:02:00.192Z,4.40
2019-01-08T23:04:26.217Z,4.40
2019-01-08T23:07:26.005Z,4.30
2019-01-08T23:16:20.460Z,4.20
2019-01-08T23:19:02.313Z,4.20
2019-01-08T23:22:02.572Z,4.10
2019-01-08T23:25:01.703Z,4.00
2019-01-08T23:30:58.395Z,4.00
2019-01-08T23:33:51.197Z,3.90
2019-01-08T23:36:33.021Z,3.90
2019-01-08T23:39:04.967Z,3.90
2019-01-08T23:41:58.608Z,3.90
2019-01-08T23:44:57.866Z,3.90
2019-01-08T23:47:34.604Z,3.90
2019-01-08T23:50:11.992Z,3.90
2019-01-08T23:53:05.466Z,3.80
2019-01-08T23:56:08.363Z,3.80
2019-01-08T23:58:59.574Z,3.80
